sensor_id;sensor_type;location;lat;lon;timestamp;temperature;humidity
316;DHT22;14128;48.686;9.738;2022-12-29T00:00:02;6.90;1.40
316;DHT22;14128;48.686;9.738;2022-12-29T00:02:31;6.90;1.40
316;DHT22;14128;48.686;9.738;2022-12-29T00:04:58;6.80;1.40
316;DHT22;14128;48.686;9.738;2022-12-29T00:07:24;6.80;1.40
316;DHT22;14128;48.686;9.738;2022-12-29T00:09:51;6.80;1.40
316;DHT22;14128;48.686;9.738;2022-12-29T00:12:18;6.90;1.40
316;DHT22;14128;48.686;9.738;2022-12-29T00:14:45;7.10;1.40
316;DHT22;14128;48.686;9.738;2022-12-29T00:17:31;7.20;1.40
316;DHT22;14128;48.686;9.738;2022-12-29T00:19:57;7.50;1.40
316;DHT22;14128;48.686;9.738;2022-12-29T00:22:42;7.70;1.40
316;DHT22;14128;48.686;9.738;2022-12-29T00:25:26;7.80;1.40
316;DHT22;14128;48.686;9.738;2022-12-29T00:28:10;8.00;1.40
316;DHT22;14128;48.686;9.738;2022-12-29T00:30:59;8.00;1.40
316;DHT22;14128;48.686;9.738;2022-12-29T00:33:44;8.20;1.40
316;DHT22;14128;48.686;9.738;2022-12-29T00:36:31;8.20;1.40
316;DHT22;14128;48.686;9.738;2022-12-29T00:39:01;8.30;1.40
316;DHT22;14128;48.686;9.738;2022-12-29T00:41:47;8.40;1.40
316;DHT22;14128;48.686;9.738;2022-12-29T00:44:31;8.60;1.40
316;DHT22;14128;48.686;9.738;2022-12-29T00:46:58;8.70;1.40
316;DHT22;14128;48.686;9.738;2022-12-29T00:49:29;8.80;1.40
316;DHT22;14128;48.686;9.738;2022-12-29T00:52:00;8.80;1.40
316;DHT22;14128;48.686;9.738;2022-12-29T00:54:27;8.80;1.40
316;DHT22;14128;48.686;9.738;2022-12-29T00:56:54;8.90;1.40
316;DHT22;14128;48.686;9.738;2022-12-29T00:59:21;8.90;1.40
316;DHT22;14128;48.686;9.738;2022-12-29T01:01:50;8.90;1.40
316;DHT22;14128;48.686;9.738;2022-12-29T01:04:17;9.00;1.40
316;DHT22;14128;48.686;9.738;2022-12-29T01:06:45;9.00;1.40
316;DHT22;14128;48.686;9.738;2022-12-29T01:09:12;9.00;1.40
316;DHT22;14128;48.686;9.738;2022-12-29T01:11:57;9.10;1.40
316;DHT22;14128;48.686;9.738;2022-12-29T01:14:24;9.20;1.40
316;DHT22;14128;48.686;9.738;2022-12-29T01:16:51;9.20;1.40
316;DHT22;14128;48.686;9.738;2022-12-29T01:19:19;9.30;1.40
316;DHT22;14128;48.686;9.738;2022-12-29T01:21:47;9.30;1.40
316;DHT22;14128;48.686;9.738;2022-12-29T01:24:15;9.40;1.40
316;DHT22;14128;48.686;9.738;2022-12-29T01:26:42;9.40;1.40
316;DHT22;14128;48.686;9.738;2022-12-29T01:29:09;9.30;1.40
316;DHT22;14128;48.686;9.738;2022-12-29T01:31:36;9.50;1.40
316;DHT22;14128;48.686;9.738;2022-12-29T01:34:03;9.60;1.40
316;DHT22;14128;48.686;9.738;2022-12-29T01:36:30;9.60;1.40
316;DHT22;14128;48.686;9.738;2022-12-29T01:38:58;9.50;1.40
316;DHT22;14128;48.686;9.738;2022-12-29T01:41:25;9.50;1.40
316;DHT22;14128;48.686;9.738;2022-12-29T01:43:54;9.60;1.40
316;DHT22;14128;48.686;9.738;2022-12-29T01:46:24;9.50;1.40
316;DHT22;14128;48.686;9.738;2022-12-29T01:48:54;9.50;1.40
316;DHT22;14128;48.686;9.738;2022-12-29T01:51:23;9.50;1.40
316;DHT22;14128;48.686;9.738;2022-12-29T01:53:51;9.60;1.40
316;DHT22;14128;48.686;9.738;2022-12-29T01:56:20;9.70;1.40
316;DHT22;14128;48.686;9.738;2022-12-29T01:58:50;9.90;1.40
316;DHT22;14128;48.686;9.738;2022-12-29T02:01:21;10.00;1.40
316;DHT22;14128;48.686;9.738;2022-12-29T02:03:48;10.00;1.40
316;DHT22;14128;48.686;9.738;2022-12-29T02:06:18;10.00;1.40
316;DHT22;14128;48.686;9.738;2022-12-29T02:08:49;10.10;1.40
316;DHT22;14128;48.686;9.738;2022-12-29T02:11:17;10.10;1.40
316;DHT22;14128;48.686;9.738;2022-12-29T02:13:46;10.10;1.40
316;DHT22;14128;48.686;9.738;2022-12-29T02:16:29;10.10;1.40
316;DHT22;14128;48.686;9.738;2022-12-29T02:21:57;10.20;1.40
316;DHT22;14128;48.686;9.738;2022-12-29T02:30:51;10.30;1.40
316;DHT22;14128;48.686;9.738;2022-12-29T02:33:32;10.20;1.40
316;DHT22;14128;48.686;9.738;2022-12-29T02:36:07;10.10;1.40
316;DHT22;14128;48.686;9.738;2022-12-29T02:38:47;10.00;1.40
316;DHT22;14128;48.686;9.738;2022-12-29T02:41:21;9.80;1.40
316;DHT22;14128;48.686;9.738;2022-12-29T02:43:52;9.60;1.40
316;DHT22;14128;48.686;9.738;2022-12-29T02:46:26;9.40;1.40
316;DHT22;14128;48.686;9.738;2022-12-29T02:49:00;9.20;1.40
316;DHT22;14128;48.686;9.738;2022-12-29T02:51:34;8.90;1.40
316;DHT22;14128;48.686;9.738;2022-12-29T02:54:03;8.70;1.40
316;DHT22;14128;48.686;9.738;2022-12-29T02:57:02;8.50;1.40
316;DHT22;14128;48.686;9.738;2022-12-29T02:59:29;8.30;1.40
316;DHT22;14128;48.686;9.738;2022-12-29T03:02:10;8.30;1.40
316;DHT22;14128;48.686;9.738;2022-12-29T03:07:52;8.10;1.40
316;DHT22;14128;48.686;9.738;2022-12-29T03:10:31;8.00;1.40
316;DHT22;14128;48.686;9.738;2022-12-29T03:13:03;8.00;1.40
316;DHT22;14128;48.686;9.738;2022-12-29T03:15:54;7.90;1.40
316;DHT22;14128;48.686;9.738;2022-12-29T03:18:44;7.90;1.40
316;DHT22;14128;48.686;9.738;2022-12-29T03:21:16;7.80;1.40
316;DHT22;14128;48.686;9.738;2022-12-29T03:23:45;7.80;1.40
316;DHT22;14128;48.686;9.738;2022-12-29T03:26:16;7.70;1.40
316;DHT22;14128;48.686;9.738;2022-12-29T03:28:47;7.70;1.40
316;DHT22;14128;48.686;9.738;2022-12-29T03:31:16;7.70;1.40
316;DHT22;14128;48.686;9.738;2022-12-29T03:33:46;7.70;1.40
316;DHT22;14128;48.686;9.738;2022-12-29T03:36:18;7.70;1.40
316;DHT22;14128;48.686;9.738;2022-12-29T03:38:49;7.70;1.40
316;DHT22;14128;48.686;9.738;2022-12-29T03:41:21;7.70;1.40
316;DHT22;14128;48.686;9.738;2022-12-29T03:43:49;7.60;1.40
316;DHT22;14128;48.686;9.738;2022-12-29T03:46:16;7.50;1.40
316;DHT22;14128;48.686;9.738;2022-12-29T03:48:44;7.50;1.40
316;DHT22;14128;48.686;9.738;2022-12-29T03:51:11;7.40;1.40
316;DHT22;14128;48.686;9.738;2022-12-29T03:53:38;7.30;1.40
316;DHT22;14128;48.686;9.738;2022-12-29T03:56:05;7.20;1.40
316;DHT22;14128;48.686;9.738;2022-12-29T03:58:32;7.20;1.40
316;DHT22;14128;48.686;9.738;2022-12-29T04:00:59;7.10;1.40
316;DHT22;14128;48.686;9.738;2022-12-29T04:03:25;7.10;1.40
316;DHT22;14128;48.686;9.738;2022-12-29T04:05:54;7.00;1.40
316;DHT22;14128;48.686;9.738;2022-12-29T04:08:20;6.90;1.40
316;DHT22;14128;48.686;9.738;2022-12-29T04:10:48;6.90;1.40
316;DHT22;14128;48.686;9.738;2022-12-29T04:13:15;6.90;1.40
316;DHT22;14128;48.686;9.738;2022-12-29T04:15:42;6.80;1.40
316;DHT22;14128;48.686;9.738;2022-12-29T04:18:10;6.80;1.40
316;DHT22;14128;48.686;9.738;2022-12-29T04:20:37;6.80;1.40
316;DHT22;14128;48.686;9.738;2022-12-29T04:23:23;6.70;1.40
316;DHT22;14128;48.686;9.738;2022-12-29T04:25:50;6.50;1.40
316;DHT22;14128;48.686;9.738;2022-12-29T04:28:17;6.40;1.40
316;DHT22;14128;48.686;9.738;2022-12-29T04:30:44;6.30;1.40
316;DHT22;14128;48.686;9.738;2022-12-29T04:33:11;6.30;1.40
316;DHT22;14128;48.686;9.738;2022-12-29T04:35:38;6.10;1.40
316;DHT22;14128;48.686;9.738;2022-12-29T04:38:05;6.10;1.40
316;DHT22;14128;48.686;9.738;2022-12-29T04:40:33;6.10;1.40
316;DHT22;14128;48.686;9.738;2022-12-29T04:43:00;6.00;1.40
316;DHT22;14128;48.686;9.738;2022-12-29T04:45:27;5.90;1.40
316;DHT22;14128;48.686;9.738;2022-12-29T04:47:54;5.80;1.40
316;DHT22;14128;48.686;9.738;2022-12-29T04:50:21;5.80;1.40
316;DHT22;14128;48.686;9.738;2022-12-29T04:52:47;5.70;1.40
316;DHT22;14128;48.686;9.738;2022-12-29T04:55:14;5.70;1.40
316;DHT22;14128;48.686;9.738;2022-12-29T04:57:42;5.70;1.40
316;DHT22;14128;48.686;9.738;2022-12-29T05:00:10;5.70;1.40
316;DHT22;14128;48.686;9.738;2022-12-29T05:02:37;5.70;1.40
316;DHT22;14128;48.686;9.738;2022-12-29T05:05:05;5.70;1.40
316;DHT22;14128;48.686;9.738;2022-12-29T05:07:32;5.60;1.40
316;DHT22;14128;48.686;9.738;2022-12-29T05:09:59;5.70;1.40
316;DHT22;14128;48.686;9.738;2022-12-29T05:12:29;5.60;1.40
316;DHT22;14128;48.686;9.738;2022-12-29T05:14:57;5.60;1.40
316;DHT22;14128;48.686;9.738;2022-12-29T05:17:24;5.50;1.40
316;DHT22;14128;48.686;9.738;2022-12-29T05:19:51;5.40;1.40
316;DHT22;14128;48.686;9.738;2022-12-29T05:22:18;5.40;1.40
316;DHT22;14128;48.686;9.738;2022-12-29T05:24:45;5.30;1.40
316;DHT22;14128;48.686;9.738;2022-12-29T05:27:12;5.30;1.40
316;DHT22;14128;48.686;9.738;2022-12-29T05:29:38;5.20;1.40
316;DHT22;14128;48.686;9.738;2022-12-29T05:32:07;5.20;1.40
316;DHT22;14128;48.686;9.738;2022-12-29T05:34:33;5.10;1.40
316;DHT22;14128;48.686;9.738;2022-12-29T05:37:00;5.10;1.40
316;DHT22;14128;48.686;9.738;2022-12-29T05:39:27;5.10;1.40
316;DHT22;14128;48.686;9.738;2022-12-29T05:41:54;5.10;1.40
316;DHT22;14128;48.686;9.738;2022-12-29T05:44:21;5.20;1.40
316;DHT22;14128;48.686;9.738;2022-12-29T05:46:48;5.20;1.40
316;DHT22;14128;48.686;9.738;2022-12-29T05:49:16;5.20;1.40
316;DHT22;14128;48.686;9.738;2022-12-29T05:51:43;5.10;1.40
316;DHT22;14128;48.686;9.738;2022-12-29T05:54:10;5.10;1.40
316;DHT22;14128;48.686;9.738;2022-12-29T05:56:37;5.10;1.40
316;DHT22;14128;48.686;9.738;2022-12-29T05:59:04;5.00;1.40
316;DHT22;14128;48.686;9.738;2022-12-29T06:01:31;4.90;1.40
316;DHT22;14128;48.686;9.738;2022-12-29T06:03:58;4.90;1.40
316;DHT22;14128;48.686;9.738;2022-12-29T06:06:26;4.90;1.40
316;DHT22;14128;48.686;9.738;2022-12-29T06:08:53;5.00;1.40
316;DHT22;14128;48.686;9.738;2022-12-29T06:11:20;5.20;1.40
316;DHT22;14128;48.686;9.738;2022-12-29T06:13:47;5.50;1.40
316;DHT22;14128;48.686;9.738;2022-12-29T06:16:14;5.60;1.40
316;DHT22;14128;48.686;9.738;2022-12-29T06:18:41;5.70;1.40
316;DHT22;14128;48.686;9.738;2022-12-29T06:21:07;5.70;1.40
316;DHT22;14128;48.686;9.738;2022-12-29T06:23:35;5.80;1.40
316;DHT22;14128;48.686;9.738;2022-12-29T06:26:02;5.90;1.40
316;DHT22;14128;48.686;9.738;2022-12-29T06:28:29;6.00;1.40
316;DHT22;14128;48.686;9.738;2022-12-29T06:30:56;6.00;1.40
316;DHT22;14128;48.686;9.738;2022-12-29T06:33:23;6.00;1.40
316;DHT22;14128;48.686;9.738;2022-12-29T06:35:49;6.10;1.40
316;DHT22;14128;48.686;9.738;2022-12-29T06:38:16;6.10;1.40
316;DHT22;14128;48.686;9.738;2022-12-29T06:40:44;6.30;1.40
316;DHT22;14128;48.686;9.738;2022-12-29T06:43:11;6.40;1.40
316;DHT22;14128;48.686;9.738;2022-12-29T06:45:38;6.50;1.40
316;DHT22;14128;48.686;9.738;2022-12-29T06:48:06;6.60;1.40
316;DHT22;14128;48.686;9.738;2022-12-29T06:50:33;6.50;1.40
316;DHT22;14128;48.686;9.738;2022-12-29T06:52:59;6.50;1.40
316;DHT22;14128;48.686;9.738;2022-12-29T06:55:26;6.50;1.40
316;DHT22;14128;48.686;9.738;2022-12-29T06:57:55;6.50;1.40
316;DHT22;14128;48.686;9.738;2022-12-29T07:00:22;6.50;1.40
316;DHT22;14128;48.686;9.738;2022-12-29T07:02:49;6.40;1.40
316;DHT22;14128;48.686;9.738;2022-12-29T07:05:16;6.50;1.40
316;DHT22;14128;48.686;9.738;2022-12-29T07:07:43;6.50;1.40
316;DHT22;14128;48.686;9.738;2022-12-29T07:10:10;6.40;1.40
316;DHT22;14128;48.686;9.738;2022-12-29T07:12:37;6.20;1.40
316;DHT22;14128;48.686;9.738;2022-12-29T07:15:06;6.10;1.40
316;DHT22;14128;48.686;9.738;2022-12-29T07:17:33;6.00;1.40
316;DHT22;14128;48.686;9.738;2022-12-29T07:20:00;5.90;1.40
316;DHT22;14128;48.686;9.738;2022-12-29T07:22:27;5.90;1.40
316;DHT22;14128;48.686;9.738;2022-12-29T07:24:54;5.90;1.40
316;DHT22;14128;48.686;9.738;2022-12-29T07:27:21;5.90;1.40
316;DHT22;14128;48.686;9.738;2022-12-29T07:29:48;5.90;1.40
316;DHT22;14128;48.686;9.738;2022-12-29T07:32:16;5.80;1.40
316;DHT22;14128;48.686;9.738;2022-12-29T07:34:43;5.90;1.40
316;DHT22;14128;48.686;9.738;2022-12-29T07:37:10;5.90;1.40
316;DHT22;14128;48.686;9.738;2022-12-29T07:39:37;5.80;1.40
316;DHT22;14128;48.686;9.738;2022-12-29T07:42:04;5.80;1.40
316;DHT22;14128;48.686;9.738;2022-12-29T07:44:31;5.80;1.40
316;DHT22;14128;48.686;9.738;2022-12-29T07:46:58;5.80;1.40
316;DHT22;14128;48.686;9.738;2022-12-29T07:49:26;5.90;1.40
316;DHT22;14128;48.686;9.738;2022-12-29T07:51:52;5.90;1.40
316;DHT22;14128;48.686;9.738;2022-12-29T07:54:19;5.90;1.40
316;DHT22;14128;48.686;9.738;2022-12-29T07:56:48;5.90;1.40
316;DHT22;14128;48.686;9.738;2022-12-29T07:59:16;6.00;1.40
316;DHT22;14128;48.686;9.738;2022-12-29T08:01:42;6.10;1.40
316;DHT22;14128;48.686;9.738;2022-12-29T08:04:09;6.10;1.40
316;DHT22;14128;48.686;9.738;2022-12-29T08:06:37;6.50;1.40
316;DHT22;14128;48.686;9.738;2022-12-29T08:09:04;6.60;1.40
316;DHT22;14128;48.686;9.738;2022-12-29T08:11:31;6.80;1.40
316;DHT22;14128;48.686;9.738;2022-12-29T08:13:58;7.00;1.40
316;DHT22;14128;48.686;9.738;2022-12-29T08:16:25;7.30;1.40
316;DHT22;14128;48.686;9.738;2022-12-29T08:18:51;7.50;1.40
316;DHT22;14128;48.686;9.738;2022-12-29T08:21:18;7.70;1.40
316;DHT22;14128;48.686;9.738;2022-12-29T08:23:47;8.00;1.40
316;DHT22;14128;48.686;9.738;2022-12-29T08:26:14;8.30;1.40
316;DHT22;14128;48.686;9.738;2022-12-29T08:28:41;8.60;1.40
316;DHT22;14128;48.686;9.738;2022-12-29T08:31:11;8.80;1.40
316;DHT22;14128;48.686;9.738;2022-12-29T08:33:38;9.10;1.40
316;DHT22;14128;48.686;9.738;2022-12-29T08:36:06;9.40;1.40
316;DHT22;14128;48.686;9.738;2022-12-29T08:38:33;9.60;1.40
316;DHT22;14128;48.686;9.738;2022-12-29T08:41:01;9.90;1.40
316;DHT22;14128;48.686;9.738;2022-12-29T08:43:28;10.20;1.40
316;DHT22;14128;48.686;9.738;2022-12-29T08:45:57;10.30;1.40
316;DHT22;14128;48.686;9.738;2022-12-29T08:48:24;10.60;1.40
316;DHT22;14128;48.686;9.738;2022-12-29T08:50:50;10.70;1.40
316;DHT22;14128;48.686;9.738;2022-12-29T08:53:18;10.90;1.40
316;DHT22;14128;48.686;9.738;2022-12-29T08:55:45;11.00;1.40
316;DHT22;14128;48.686;9.738;2022-12-29T08:58:14;11.10;1.40
316;DHT22;14128;48.686;9.738;2022-12-29T09:00:42;11.20;1.40
316;DHT22;14128;48.686;9.738;2022-12-29T09:03:09;11.20;1.40
316;DHT22;14128;48.686;9.738;2022-12-29T09:05:35;11.30;1.40
316;DHT22;14128;48.686;9.738;2022-12-29T09:08:03;11.30;1.40
316;DHT22;14128;48.686;9.738;2022-12-29T09:10:30;11.30;1.40
316;DHT22;14128;48.686;9.738;2022-12-29T09:12:56;11.40;1.40
316;DHT22;14128;48.686;9.738;2022-12-29T09:15:24;11.50;1.40
316;DHT22;14128;48.686;9.738;2022-12-29T09:17:51;11.50;1.40
316;DHT22;14128;48.686;9.738;2022-12-29T09:20:19;11.60;1.40
316;DHT22;14128;48.686;9.738;2022-12-29T09:22:46;11.70;1.40
316;DHT22;14128;48.686;9.738;2022-12-29T09:25:14;11.60;1.40
316;DHT22;14128;48.686;9.738;2022-12-29T09:27:41;11.70;1.40
316;DHT22;14128;48.686;9.738;2022-12-29T09:30:10;11.80;1.40
316;DHT22;14128;48.686;9.738;2022-12-29T09:32:39;11.70;1.40
316;DHT22;14128;48.686;9.738;2022-12-29T09:35:06;11.70;1.40
316;DHT22;14128;48.686;9.738;2022-12-29T09:37:33;11.80;1.40
316;DHT22;14128;48.686;9.738;2022-12-29T09:39:59;11.80;1.40
316;DHT22;14128;48.686;9.738;2022-12-29T09:42:35;11.80;1.40
316;DHT22;14128;48.686;9.738;2022-12-29T09:45:10;11.80;1.40
316;DHT22;14128;48.686;9.738;2022-12-29T09:47:41;11.90;1.40
316;DHT22;14128;48.686;9.738;2022-12-29T09:50:14;11.90;1.40
316;DHT22;14128;48.686;9.738;2022-12-29T09:52:46;12.00;1.40
316;DHT22;14128;48.686;9.738;2022-12-29T09:55:16;11.90;1.40
316;DHT22;14128;48.686;9.738;2022-12-29T09:57:46;11.90;1.40
316;DHT22;14128;48.686;9.738;2022-12-29T10:00:17;11.80;1.40
316;DHT22;14128;48.686;9.738;2022-12-29T10:02:48;11.90;1.40
316;DHT22;14128;48.686;9.738;2022-12-29T10:05:32;12.00;1.40
316;DHT22;14128;48.686;9.738;2022-12-29T10:08:16;12.10;1.40
316;DHT22;14128;48.686;9.738;2022-12-29T10:10:53;12.20;1.40
316;DHT22;14128;48.686;9.738;2022-12-29T10:13:34;12.30;1.40
316;DHT22;14128;48.686;9.738;2022-12-29T10:16:09;12.50;1.40
316;DHT22;14128;48.686;9.738;2022-12-29T10:19:02;12.70;1.40
316;DHT22;14128;48.686;9.738;2022-12-29T10:21:43;12.90;1.40
316;DHT22;14128;48.686;9.738;2022-12-29T10:24:15;13.00;1.40
316;DHT22;14128;48.686;9.738;2022-12-29T10:26:43;13.00;1.40
316;DHT22;14128;48.686;9.738;2022-12-29T10:29:16;13.00;1.40
316;DHT22;14128;48.686;9.738;2022-12-29T10:31:44;13.00;1.40
316;DHT22;14128;48.686;9.738;2022-12-29T10:34:21;12.90;1.40
316;DHT22;14128;48.686;9.738;2022-12-29T10:36:50;12.80;1.40
316;DHT22;14128;48.686;9.738;2022-12-29T10:39:23;12.80;1.40
316;DHT22;14128;48.686;9.738;2022-12-29T10:41:57;12.70;1.40
316;DHT22;14128;48.686;9.738;2022-12-29T10:44:29;12.70;1.40
316;DHT22;14128;48.686;9.738;2022-12-29T10:46:59;12.60;1.40
316;DHT22;14128;48.686;9.738;2022-12-29T10:49:29;12.50;1.40
316;DHT22;14128;48.686;9.738;2022-12-29T10:51:59;12.50;1.40
316;DHT22;14128;48.686;9.738;2022-12-29T10:54:29;12.40;1.40
316;DHT22;14128;48.686;9.738;2022-12-29T10:57:01;12.40;1.40
316;DHT22;14128;48.686;9.738;2022-12-29T10:59:31;12.50;1.40
316;DHT22;14128;48.686;9.738;2022-12-29T11:02:05;12.50;1.40
316;DHT22;14128;48.686;9.738;2022-12-29T11:04:47;12.40;1.40
316;DHT22;14128;48.686;9.738;2022-12-29T11:07:19;12.40;1.40
316;DHT22;14128;48.686;9.738;2022-12-29T11:09:47;12.40;1.40
316;DHT22;14128;48.686;9.738;2022-12-29T11:12:23;12.40;1.40
316;DHT22;14128;48.686;9.738;2022-12-29T11:15:06;12.30;1.40
316;DHT22;14128;48.686;9.738;2022-12-29T11:17:44;12.60;1.40
316;DHT22;14128;48.686;9.738;2022-12-29T11:20:29;12.70;1.40
316;DHT22;14128;48.686;9.738;2022-12-29T11:22:57;12.70;1.40
316;DHT22;14128;48.686;9.738;2022-12-29T11:25:25;12.80;1.40
316;DHT22;14128;48.686;9.738;2022-12-29T11:27:56;12.80;1.40
316;DHT22;14128;48.686;9.738;2022-12-29T11:30:26;12.80;1.40
316;DHT22;14128;48.686;9.738;2022-12-29T11:32:56;12.80;1.40
316;DHT22;14128;48.686;9.738;2022-12-29T11:35:34;13.00;1.40
316;DHT22;14128;48.686;9.738;2022-12-29T11:38:02;13.30;1.40
316;DHT22;14128;48.686;9.738;2022-12-29T11:40:29;13.40;1.40
316;DHT22;14128;48.686;9.738;2022-12-29T11:42:58;13.40;1.40
316;DHT22;14128;48.686;9.738;2022-12-29T11:45:30;13.40;1.40
316;DHT22;14128;48.686;9.738;2022-12-29T11:47:59;13.30;1.40
316;DHT22;14128;48.686;9.738;2022-12-29T11:50:31;13.30;1.40
316;DHT22;14128;48.686;9.738;2022-12-29T11:53:01;13.20;1.40
316;DHT22;14128;48.686;9.738;2022-12-29T11:55:30;13.20;1.40
316;DHT22;14128;48.686;9.738;2022-12-29T11:58:00;13.10;1.40
316;DHT22;14128;48.686;9.738;2022-12-29T12:00:31;13.00;1.40
316;DHT22;14128;48.686;9.738;2022-12-29T12:03:00;12.90;1.40
316;DHT22;14128;48.686;9.738;2022-12-29T12:05:35;12.80;1.40
316;DHT22;14128;48.686;9.738;2022-12-29T12:08:10;12.80;1.40
316;DHT22;14128;48.686;9.738;2022-12-29T12:10:42;12.70;1.40
316;DHT22;14128;48.686;9.738;2022-12-29T12:13:19;12.80;1.40
316;DHT22;14128;48.686;9.738;2022-12-29T12:15:52;12.80;1.40
316;DHT22;14128;48.686;9.738;2022-12-29T12:18:37;12.80;1.40
316;DHT22;14128;48.686;9.738;2022-12-29T12:21:13;12.80;1.40
316;DHT22;14128;48.686;9.738;2022-12-29T12:24:02;12.80;1.40
316;DHT22;14128;48.686;9.738;2022-12-29T12:26:36;12.80;1.40
316;DHT22;14128;48.686;9.738;2022-12-29T12:29:11;12.80;1.40
316;DHT22;14128;48.686;9.738;2022-12-29T12:31:44;12.80;1.40
316;DHT22;14128;48.686;9.738;2022-12-29T12:34:17;12.80;1.40
316;DHT22;14128;48.686;9.738;2022-12-29T12:37:11;13.00;1.40
316;DHT22;14128;48.686;9.738;2022-12-29T12:39:48;12.90;1.40
316;DHT22;14128;48.686;9.738;2022-12-29T12:42:28;12.90;1.40
316;DHT22;14128;48.686;9.738;2022-12-29T12:45:17;12.90;1.40
316;DHT22;14128;48.686;9.738;2022-12-29T12:47:58;13.00;1.40
316;DHT22;14128;48.686;9.738;2022-12-29T12:50:38;13.00;1.40
316;DHT22;14128;48.686;9.738;2022-12-29T12:53:33;13.00;1.40
316;DHT22;14128;48.686;9.738;2022-12-29T12:56:16;12.90;1.40
316;DHT22;14128;48.686;9.738;2022-12-29T12:58:52;12.80;1.40
316;DHT22;14128;48.686;9.738;2022-12-29T13:01:29;12.80;1.40
316;DHT22;14128;48.686;9.738;2022-12-29T13:04:15;12.90;1.40
316;DHT22;14128;48.686;9.738;2022-12-29T13:06:50;13.00;1.40
316;DHT22;14128;48.686;9.738;2022-12-29T13:09:31;12.90;1.40
316;DHT22;14128;48.686;9.738;2022-12-29T13:12:11;12.90;1.40
316;DHT22;14128;48.686;9.738;2022-12-29T13:14:47;13.00;1.40
316;DHT22;14128;48.686;9.738;2022-12-29T13:17:25;13.00;1.40
316;DHT22;14128;48.686;9.738;2022-12-29T13:19:59;12.80;1.40
316;DHT22;14128;48.686;9.738;2022-12-29T13:22:32;12.70;1.40
316;DHT22;14128;48.686;9.738;2022-12-29T13:25:26;12.70;1.40
316;DHT22;14128;48.686;9.738;2022-12-29T13:28:00;12.70;1.40
316;DHT22;14128;48.686;9.738;2022-12-29T13:30:33;12.70;1.40
316;DHT22;14128;48.686;9.738;2022-12-29T13:33:10;12.70;1.40
316;DHT22;14128;48.686;9.738;2022-12-29T13:35:54;12.80;1.40
316;DHT22;14128;48.686;9.738;2022-12-29T13:38:25;12.70;1.40
316;DHT22;14128;48.686;9.738;2022-12-29T13:40:56;12.70;1.40
316;DHT22;14128;48.686;9.738;2022-12-29T13:43:24;12.60;1.40
316;DHT22;14128;48.686;9.738;2022-12-29T13:45:58;12.50;1.40
316;DHT22;14128;48.686;9.738;2022-12-29T13:48:35;12.50;1.40
316;DHT22;14128;48.686;9.738;2022-12-29T13:51:03;12.40;1.40
316;DHT22;14128;48.686;9.738;2022-12-29T13:53:37;12.40;1.40
316;DHT22;14128;48.686;9.738;2022-12-29T13:56:14;12.30;1.40
316;DHT22;14128;48.686;9.738;2022-12-29T13:58:50;12.40;1.40
316;DHT22;14128;48.686;9.738;2022-12-29T14:01:23;12.40;1.40
316;DHT22;14128;48.686;9.738;2022-12-29T14:03:55;12.50;1.40
316;DHT22;14128;48.686;9.738;2022-12-29T14:06:23;12.50;1.40
316;DHT22;14128;48.686;9.738;2022-12-29T14:08:53;12.40;1.40
316;DHT22;14128;48.686;9.738;2022-12-29T14:11:23;12.40;1.40
316;DHT22;14128;48.686;9.738;2022-12-29T14:13:55;12.40;1.40
316;DHT22;14128;48.686;9.738;2022-12-29T14:16:30;12.60;1.40
316;DHT22;14128;48.686;9.738;2022-12-29T14:19:06;12.60;1.40
316;DHT22;14128;48.686;9.738;2022-12-29T14:21:36;12.70;1.40
316;DHT22;14128;48.686;9.738;2022-12-29T14:24:37;12.60;1.40
316;DHT22;14128;48.686;9.738;2022-12-29T14:30:46;12.70;1.40
316;DHT22;14128;48.686;9.738;2022-12-29T14:33:14;12.80;1.40
316;DHT22;14128;48.686;9.738;2022-12-29T14:35:43;12.80;1.40
316;DHT22;14128;48.686;9.738;2022-12-29T14:38:26;12.70;1.40
316;DHT22;14128;48.686;9.738;2022-12-29T14:44:02;12.80;1.40
316;DHT22;14128;48.686;9.738;2022-12-29T14:46:48;12.70;1.40
316;DHT22;14128;48.686;9.738;2022-12-29T14:49:18;12.80;1.40
316;DHT22;14128;48.686;9.738;2022-12-29T14:51:47;12.80;1.40
316;DHT22;14128;48.686;9.738;2022-12-29T14:54:52;12.90;1.40
316;DHT22;14128;48.686;9.738;2022-12-29T14:57:26;13.00;1.40
316;DHT22;14128;48.686;9.738;2022-12-29T15:00:00;12.90;1.40
316;DHT22;14128;48.686;9.738;2022-12-29T15:02:33;12.60;1.40
316;DHT22;14128;48.686;9.738;2022-12-29T15:05:02;12.30;1.40
316;DHT22;14128;48.686;9.738;2022-12-29T15:07:30;12.10;1.40
316;DHT22;14128;48.686;9.738;2022-12-29T15:10:03;12.00;1.40
316;DHT22;14128;48.686;9.738;2022-12-29T15:12:36;11.80;1.40
316;DHT22;14128;48.686;9.738;2022-12-29T15:15:17;11.80;1.40
316;DHT22;14128;48.686;9.738;2022-12-29T15:17:45;11.90;1.40
316;DHT22;14128;48.686;9.738;2022-12-29T15:20:21;11.90;1.40
316;DHT22;14128;48.686;9.738;2022-12-29T15:22:52;11.90;1.40
316;DHT22;14128;48.686;9.738;2022-12-29T15:25:19;11.80;1.40
316;DHT22;14128;48.686;9.738;2022-12-29T15:27:49;11.90;1.40
316;DHT22;14128;48.686;9.738;2022-12-29T15:30:18;11.60;1.40
316;DHT22;14128;48.686;9.738;2022-12-29T15:32:46;11.50;1.40
316;DHT22;14128;48.686;9.738;2022-12-29T15:35:29;11.20;1.40
316;DHT22;14128;48.686;9.738;2022-12-29T15:37:57;11.00;1.40
316;DHT22;14128;48.686;9.738;2022-12-29T15:40:25;10.80;1.40
316;DHT22;14128;48.686;9.738;2022-12-29T15:45:42;10.50;1.40
316;DHT22;14128;48.686;9.738;2022-12-29T15:48:15;10.30;1.40
316;DHT22;14128;48.686;9.738;2022-12-29T15:50:43;10.10;1.40
316;DHT22;14128;48.686;9.738;2022-12-29T15:53:12;9.90;1.40
316;DHT22;14128;48.686;9.738;2022-12-29T15:55:44;9.60;1.40
316;DHT22;14128;48.686;9.738;2022-12-29T15:58:21;9.50;1.40
316;DHT22;14128;48.686;9.738;2022-12-29T16:00:50;9.50;1.40
316;DHT22;14128;48.686;9.738;2022-12-29T16:03:19;9.50;1.40
316;DHT22;14128;48.686;9.738;2022-12-29T16:05:51;9.60;1.40
316;DHT22;14128;48.686;9.738;2022-12-29T16:08:31;9.50;1.40
316;DHT22;14128;48.686;9.738;2022-12-29T16:11:00;9.40;1.40
316;DHT22;14128;48.686;9.738;2022-12-29T16:13:29;9.40;1.40
316;DHT22;14128;48.686;9.738;2022-12-29T16:16:02;9.30;1.40
316;DHT22;14128;48.686;9.738;2022-12-29T16:18:32;9.30;1.40
316;DHT22;14128;48.686;9.738;2022-12-29T16:21:01;9.20;1.40
316;DHT22;14128;48.686;9.738;2022-12-29T16:23:29;9.20;1.40
316;DHT22;14128;48.686;9.738;2022-12-29T16:25:57;9.10;1.40
316;DHT22;14128;48.686;9.738;2022-12-29T16:28:26;9.00;1.40
316;DHT22;14128;48.686;9.738;2022-12-29T16:31:01;9.00;1.40
316;DHT22;14128;48.686;9.738;2022-12-29T16:33:36;9.00;1.40
316;DHT22;14128;48.686;9.738;2022-12-29T16:36:26;9.00;1.40
316;DHT22;14128;48.686;9.738;2022-12-29T16:41:47;9.00;1.40
316;DHT22;14128;48.686;9.738;2022-12-29T16:44:18;9.10;1.40
316;DHT22;14128;48.686;9.738;2022-12-29T16:47:01;9.00;1.40
316;DHT22;14128;48.686;9.738;2022-12-29T16:49:30;9.10;1.40
316;DHT22;14128;48.686;9.738;2022-12-29T16:51:57;9.20;1.40
316;DHT22;14128;48.686;9.738;2022-12-29T16:54:28;9.30;1.40
316;DHT22;14128;48.686;9.738;2022-12-29T16:56:56;9.30;1.40
316;DHT22;14128;48.686;9.738;2022-12-29T16:59:32;9.40;1.40
316;DHT22;14128;48.686;9.738;2022-12-29T17:02:06;9.40;1.40
316;DHT22;14128;48.686;9.738;2022-12-29T17:04:33;9.50;1.40
316;DHT22;14128;48.686;9.738;2022-12-29T17:07:00;9.60;1.40
316;DHT22;14128;48.686;9.738;2022-12-29T17:09:28;9.70;1.40
316;DHT22;14128;48.686;9.738;2022-12-29T17:11:58;9.70;1.40
316;DHT22;14128;48.686;9.738;2022-12-29T17:14:43;9.70;1.40
316;DHT22;14128;48.686;9.738;2022-12-29T17:17:17;9.70;1.40